Latest Coastal Weather Observations for Groote Eylandt Airport

IDD60701

Issued at 8:55 am CST Tuesday 2 September 2014 (issued every 10 minutes, with the page automatically refreshed every 10 minutes)

About coastal observations | Map of coastal stations | Coastal observations for NT | Marine services | Other Formats
Station Details ID: 014518 Name: GROOTE EYLANDT AIRPORT Lat: -13.97 Lon: 136.46 Height: 13.7 m
Data from the previous 72 hours. | See also: Recent months at Groote Eylandt Airport
Date/Time
CST
Temp

°C
Wind Pressure Rain
since 9am
mm
Weather Cloud Vis
km
Sea
Height
m
Swell
Dir
 
Speed
knots
Gust
knots
hPa Trend Height
m
Period
s
Dir
02/08:30am 22.8 S 5 10 1016.0 - 0.0 - Partly cloudy 10 - - - -
02/08:18am 22.0 S 5 7 1015.9 - 0.0 - Partly cloudy 10 - - - -
02/08:01am 21.0 S 4 6 1015.9 - 0.0 - Partly cloudy 10 - - - -
02/08:00am 21.0 S 4 6 1015.9 - 0.0 - Partly cloudy 10 - - - -
02/07:33am 19.6 ESE 3 5 1015.8 - 0.0 - Cloudy 1 - - - -
02/07:30am 19.5 SE 4 5 1015.8 - 0.0 - Cloudy - - - - -
02/07:24am 19.2 S 3 5 1015.7 - 0.0 - Cloudy - - - - -
02/07:15am 19.1 S 4 6 1015.7 - 0.0 - Cloudy 0.1 - - - -
02/07:00am 18.9 S 3 5 1015.4 - 0.0 - Cloudy 0.1 - - - -
02/06:30am 19.0 SE 3 4 1015.2 - 0.0 - Cloudy 0.1 - - - -
02/06:00am 18.8 S 3 5 1014.8 - 0.0 - Cloudy 0.1 - - - -
02/05:30am 19.2 S 2 5 1014.8 - 0.0 - Cloudy 0.1 - - - -
02/05:05am 19.7 S 3 5 1014.4 - 0.0 - Cloudy - - - - -
02/05:00am 19.9 S 3 5 1014.4 - 0.0 - Cloudy - - - - -
02/04:30am 19.9 SSW 2 4 1014.4 - 0.0 - Cloudy - - - - -
02/04:00am 20.4 SSW 2 4 1014.4 - 0.0 - Cloudy - - - - -
02/03:30am 20.5 ENE 1 3 1014.5 - 0.0 - Cloudy - - - - -
02/03:00am 20.8 ENE 3 4 1014.5 - 0.0 - Cloudy - - - - -
02/02:30am 21.2 ESE 3 4 1014.6 - 0.0 - Cloudy - - - - -
02/02:00am 21.3 ESE 3 4 1014.7 - 0.0 - Cloudy - - - - -
02/01:31am 20.9 CALM 0 4 1014.8 - 0.0 - Cloudy 0.6 - - - -
02/01:30am 20.8 CALM 0 4 1014.8 - 0.0 - Cloudy 0.6 - - - -
02/01:16am 20.4 NE 1 5 1015.0 - 0.0 - Cloudy 0.9 - - - -
02/01:09am 20.3 E 1 5 1015.1 - 0.0 - Cloudy 5 - - - -
02/01:00am 19.9 CALM 0 0 1015.2 - 0.0 - Partly cloudy 10 - - - -
02/12:54am 19.6 CALM 0 0 1015.2 - 0.0 - Partly cloudy 10 - - - -
02/12:30am 19.4 E 1 3 1015.3 - 0.0 - - 10 - - - -
02/12:00am 20.2 E 4 4 1014.9 - 0.0 - - 10 - - - -
 
Date/Time
CST
Temp

°C
Wind Pressure Rain
since 9am
mm
Weather Cloud Vis
km
Sea
Height
m
Swell
Dir
 
Speed
knots
Gust
knots
hPa Trend Height
m
Period
s
Dir
01/11:30pm 20.4 E 3 4 1014.9 - 0.0 - - 10 - - - -
01/11:00pm 20.4 E 3 4 1014.9 - 0.0 - - 10 - - - -
01/10:30pm 20.7 ENE 3 4 1015.1 - 0.0 - - 10 - - - -
01/10:00pm 20.9 ENE 3 4 1015.0 - 0.0 - - 10 - - - -
01/09:30pm 21.4 ENE 2 4 1014.8 - 0.0 - - 10 - - - -
01/09:00pm 22.1 ENE 5 6 1014.6 - 0.0 - - 10 - - - -
01/08:30pm 22.6 NE 5 6 1014.6 - 0.0 - - 10 - - - -
01/08:00pm 23.3 E 3 4 1014.3 - 0.0 - - 10 - - - -
01/07:30pm 24.0 E 4 5 1014.0 - 0.0 - - 10 - - - -
01/07:00pm 24.9 ESE 4 5 1013.5 - 0.0 - - 10 - - - -
01/06:30pm 26.1 ESE 6 11 1013.3 - 0.0 - - 10 - - - -
01/06:00pm 27.5 ESE 6 9 1012.8 - 0.0 - - 10 - - - -
01/05:30pm 28.9 ESE 6 9 1012.5 - 0.0 - - 10 - - - -
01/05:00pm 29.8 ESE 7 12 1012.3 - 0.0 - - 10 - - - -
01/04:30pm 31.0 E 10 13 1012.0 - 0.0 - - 10 - - - -
01/04:00pm 30.9 E 9 15 1011.8 - 0.0 - - 10 - - - -
01/03:30pm 31.3 NE 7 15 1011.8 - 0.0 - - 10 - - - -
01/03:00pm 32.0 ESE 10 14 1011.9 - 0.0 - - 10 - - - -
01/02:30pm 31.7 ESE 8 13 1012.3 - 0.0 - - 10 - - - -
01/02:00pm 29.6 SSW 5 9 1012.7 - 0.0 - - 10 - - - -
01/01:36pm 28.4 SSW 6 16 1013.1 - 0.0 - - - - - - -
01/01:35pm 28.0 WSW 10 16 1013.1 - 0.0 - - - - - - -
01/01:30pm 27.0 WSW 10 16 1013.3 - 0.0 - - - - - - -
01/01:00pm 27.2 WSW 9 14 1013.7 - 0.0 - - - - - - -
01/12:58pm 27.4 SW 9 14 1013.7 - 0.0 - - - - - - -
01/12:57pm 27.3 SW 10 14 1013.8 - 0.0 - - - - - - -
01/12:30pm 27.1 WSW 9 14 1014.3 - 0.0 - - 10 - - - -
01/12:00pm 27.0 WSW 9 15 1014.5 - 0.0 - Cloudy 10 - - - -
01/11:30am 26.8 WSW 8 12 1014.9 - 0.0 - - 10 - - - -
01/11:00am 27.2 SW 6 10 1015.4 - 0.0 - - 10 - - - -
01/10:30am 25.9 SW 6 10 1015.8 - 0.0 - - 10 - - - -
01/10:00am 25.6 S 5 9 1016.1 - 0.0 - - 10 - - - -
01/09:30am 23.6 S 4 7 1016.2 - 0.0 - Partly cloudy 10 - - - -
01/09:27am 23.8 S 4 7 1016.2 - 0.0 - Partly cloudy 10 - - - -
01/09:00am 21.6 S 5 7 1016.1 - 0.0 - Cloudy - - - - -
01/08:30am 20.6 SSE 3 5 1015.8 - 0.0 - Cloudy - - - - -
01/08:00am 19.9 CALM 0 0 1015.5 - 0.0 - Cloudy - - - - -
01/07:30am 19.4 CALM 0 3 1015.1 - 0.0 - Cloudy - - - - -
01/07:00am 19.3 E 6 7 1015.0 - 0.0 - Cloudy - - - - -
01/06:30am 19.4 CALM 0 0 1014.5 - 0.0 - Cloudy - - - - -
01/06:00am 19.6 SE 1 4 1014.2 - 0.0 - Cloudy - - - - -
01/05:30am 19.9 S 3 4 1013.9 - 0.0 - Cloudy - - - - -
01/05:00am 19.9 CALM 0 3 1013.8 - 0.0 - Cloudy - - - - -
01/04:30am 20.0 CALM 0 0 1013.6 - 0.0 - Cloudy - - - - -
01/04:00am 19.2 CALM 0 0 1013.3 - 0.0 - Cloudy - - - - -
01/03:30am 19.1 CALM 0 0 1013.2 - 0.0 - Cloudy - - - - -
01/03:00am 18.4 CALM 0 0 1013.0 - 0.0 - Cloudy - - - - -
01/02:30am 18.2 CALM 0 0 1013.2 - 0.0 - Cloudy - - - - -
01/02:00am 18.2 CALM 0 0 1013.3 - 0.0 - Partly cloudy - - - - -
01/01:54am 17.9 CALM 0 0 1013.3 - 0.0 - Partly cloudy - - - - -
01/01:30am 18.1 CALM 0 0 1013.4 - 0.0 - - - - - - -
01/01:00am 18.3 E 2 4 1013.5 - 0.0 - Partly cloudy 10 - - - -
01/12:30am 18.2 CALM 0 0 1013.7 - 0.0 - Partly cloudy 10 - - - -
01/12:00am 18.2 CALM 0 0 1013.5 - 0.0 - - 10 - - - -
 
Date/Time
CST
Temp

°C
Wind Pressure Rain
since 9am
mm
Weather Cloud Vis
km
Sea
Height
m
Swell
Dir
 
Speed
knots
Gust
knots
hPa Trend Height
m
Period
s
Dir
31/11:30pm 18.9 CALM 0 0 1013.5 - 0.0 - - 10 - - - -
31/11:00pm 19.6 E 3 4 1013.4 - 0.0 - - 10 - - - -
31/10:30pm 20.1 ENE 1 4 1013.6 - 0.0 - - 10 - - - -
31/10:00pm 20.5 ENE 2 4 1013.7 - 0.0 - - 10 - - - -
31/09:30pm 20.9 ESE 4 5 1013.8 - 0.0 - - 10 - - - -
31/09:00pm 21.5 SE 5 7 1013.5 - 0.0 - - 10 - - - -
31/08:30pm 22.3 ENE 7 9 1013.6 - 0.0 - - 10 - - - -
31/08:00pm 23.2 ESE 6 8 1013.8 - 0.0 - - 10 - - - -
31/07:30pm 23.6 ESE 5 7 1013.4 - 0.0 - - 10 - - - -
31/07:00pm 24.5 ESE 4 6 1012.9 - 0.0 - - 10 - - - -
31/06:30pm 25.7 ESE 5 7 1012.5 - 0.0 - - 10 - - - -
31/06:00pm 27.1 E 8 10 1012.2 - 0.0 - - 10 - - - -
31/05:30pm 28.5 ESE 7 10 1012.0 - 0.0 - - 10 - - - -
31/05:00pm 28.9 E 9 12 1011.7 - 0.0 - - 10 - - - -
31/04:30pm 29.4 ESE 7 11 1011.5 - 0.0 - - 10 - - - -
31/04:00pm 29.8 ESE 7 12 1011.4 - 0.0 - - 10 - - - -
31/03:30pm 30.0 ESE 9 15 1011.3 - 0.0 - - 10 - - - -
31/03:00pm 30.4 E 8 14 1011.3 - 0.0 - - 10 - - - -
31/02:30pm 30.8 ENE 10 14 1011.6 - 0.0 - - 10 - - - -
31/02:00pm 30.8 E 9 17 1011.9 - 0.0 - - 10 - - - -
31/01:30pm 31.7 E 8 16 1012.2 - 0.0 - - 10 - - - -
31/01:00pm 30.9 E 9 15 1012.7 - 0.0 - - 10 - - - -
31/12:30pm 28.1 W 15 22 1012.9 - 0.0 - - 10 - - - -
31/12:00pm 29.5 SSE 7 12 1013.3 - 0.0 - Cloudy 10 - - - -
31/11:30am 28.6 S 10 14 1014.0 - 0.0 - - 10 - - - -
31/11:00am 27.6 SW 6 11 1014.3 - 0.0 - - 10 - - - -
31/10:30am 28.0 SW 6 9 1014.5 - 0.0 - - 10 - - - -
31/10:00am 27.3 SW 7 10 1014.8 - 0.0 - - 10 - - - -
31/09:30am 28.1 SE 3 6 1015.0 - 0.0 - - 10 - - - -
31/09:00am 25.3 N 1 4 1014.8 - 0.0 - - - - - - -
31/08:30am 21.6 CALM 0 0 1015.0 - 0.0 - - - - - - -
31/08:09am 19.9 CALM 0 0 1015.0 - 0.0 - Partly cloudy - - - - -
31/08:00am 19.0 NE 2 4 1015.0 - 0.0 - Partly cloudy - - - - -
31/07:30am 17.4 S 1 4 1014.9 - 0.0 - Cloudy - - - - -
31/07:05am 16.4 NNE 1 4 1014.7 - 0.0 - Partly cloudy - - - - -
31/07:00am 16.6 NE 3 5 1014.7 - 0.0 - Partly cloudy - - - - -
31/06:30am 15.9 CALM 0 1 1014.5 - 0.0 - Partly cloudy - - - - -
31/06:22am 16.1 E 2 4 1014.3 - 0.0 - Partly cloudy - - - - -
31/06:00am 16.0 CALM 0 4 1014.0 - 0.0 - Cloudy - - - - -
31/05:40am 16.4 CALM 0 0 1013.7 - 0.0 - Partly cloudy - - - - -
31/05:30am 16.2 CALM 0 0 1013.8 - 0.0 - - - - - - -
31/05:13am 16.6 CALM 0 3 1013.8 - 0.0 - Partly cloudy - - - - -
31/05:00am 16.9 ESE 3 5 1013.7 - 0.0 - Partly cloudy - - - - -
31/04:51am 16.3 S 3 4 1013.8 - 0.0 - Partly cloudy - - - - -
31/04:30am 16.5 CALM 0 4 1013.5 - 0.0 - - - - - - -
31/04:00am 16.9 SE 3 4 1013.5 - 0.0 - - - - - - -
31/03:30am 17.9 SSW 3 5 1013.5 - 0.0 - - - - - - -
31/03:00am 18.2 SSW 4 6 1013.5 - 0.0 - - - - - - -
31/02:30am 17.7 SSE 4 6 1013.6 - 0.0 - - 10 - - - -
31/02:00am 18.6 E 5 6 1013.5 - 0.0 - - 10 - - - -
31/01:30am 18.8 E 5 6 1013.5 - 0.0 - - 7 - - - -
31/01:00am 19.0 E 6 7 1013.5 - 0.0 - - 10 - - - -
31/12:30am 19.1 E 5 7 1013.7 - 0.0 - - 9 - - - -
31/12:00am 19.3 E 5 7 1013.8 - 0.0 - - 10 - - - -
 
Date/Time
CST
Temp

°C
Wind Pressure Rain
since 9am
mm
Weather Cloud Vis
km
Sea
Height
m
Swell
Dir
 
Speed
knots
Gust
knots
hPa Trend Height
m
Period
s
Dir
30/11:30pm 19.1 E 6 7 1013.8 - 0.0 - - 10 - - - -
30/11:00pm 18.8 E 4 5 1014.0 - 0.0 - - 10 - - - -
30/10:30pm 18.7 E 5 6 1014.1 - 0.0 - - 10 - - - -
30/10:00pm 18.8 ENE 4 5 1014.2 - 0.0 - - 10 - - - -
30/09:30pm 18.6 E 5 6 1014.4 - 0.0 - - 10 - - - -
30/09:14pm 19.2 E 4 5 1014.3 - 0.0 - - 10 - - - -
30/09:02pm 19.5 E 4 5 1014.2 - 0.0 - - 5 - - - -
30/09:00pm 19.6 E 3 4 1014.1 - 0.0 - - 7 - - - -
30/08:30pm 19.7 CALM 0 0 1014.3 - 0.0 - - 10 - - - -
30/08:00pm 21.1 E 3 4 1014.1 - 0.0 - - 10 - - - -
30/07:30pm 22.6 ESE 4 5 1013.9 - 0.0 - - 10 - - - -
30/07:00pm 23.8 ESE 4 5 1013.6 - 0.0 - - 10 - - - -
30/06:30pm 25.1 ESE 5 8 1013.3 - 0.0 - - 10 - - - -
30/06:00pm 27.1 ESE 6 9 1012.9 - 0.0 - - 10 - - - -
30/05:30pm 28.0 ESE 7 11 1012.8 - 0.0 - - 10 - - - -
30/05:00pm 29.0 E 9 14 1012.7 - 0.0 - - 10 - - - -
30/04:30pm 29.5 E 10 16 1012.6 - 0.0 - - 10 - - - -
30/04:00pm 30.1 ESE 10 16 1012.4 - 0.0 - - 10 - - - -
30/03:30pm 29.7 E 11 17 1012.4 - 0.0 - - 10 - - - -
30/03:00pm 30.4 SE 8 14 1012.4 - 0.0 - - 10 - - - -
30/02:30pm 29.8 E 11 17 1012.8 - 0.0 - - 10 - - - -
30/02:00pm 30.1 E 12 15 1013.2 - 0.0 - - 10 - - - -
30/01:30pm 29.3 SE 9 15 1013.8 - 0.0 - - 10 - - - -
30/01:00pm 29.2 SSE 11 17 1014.3 - 0.0 - - 10 - - - -
30/12:30pm 29.5 SE 10 15 1014.9 - 0.0 - - 10 - - - -
30/12:00pm 29.4 SE 9 15 1015.2 - 0.0 - - 10 - - - -
30/11:30am 28.8 SE 10 17 1015.8 - 0.0 - - 10 - - - -
30/11:00am 28.4 SE 9 14 1016.2 - 0.0 - - 10 - - - -
30/10:30am 27.7 SSE 8 11 1016.4 - 0.0 - - 10 - - - -
30/10:00am 26.4 SSE 5 9 1016.6 - 0.0 - - 10 - - - -
30/09:30am 24.7 S 6 9 1016.6 - 0.0 - - 10 - - - -
30/09:00am 23.5 S 6 10 1016.4 - 0.0 - - - - - - -

Other Formats:

Comma delimited format used in spreadsheet applications
http://www.bom.gov.au/fwo/IDD60701/IDD60701.94153.axf

JavaScript Object Notation format (JSON) in row-major order
http://www.bom.gov.au/fwo/IDD60701/IDD60701.94153.json